CYVT

Details ICAO CYVT (YVT)
Name Buffalo Narrows
Region Canada
Timezone America/Regina (UTC-6.0)
Plans Departing 0
Arriving 1
Stats Elevation 1,444 ft / 440 m (AMSL)
Location 55.843317° -108.419590°
Runways 2
Magnetic Variation 11.885° E
Sunrise 2017-12-17 15:41:18 UTC / 2017-12-17 09:41:18 Local
Sunset 2017-12-17 22:41:20 UTC / 2017-12-17 16:41:20 Local
Advertisement - Login to hide

Runways

ID Width Length Bearing (true) Bearing (mag) Surface Threshold Offset Overrun Length
06 75 ft / 23 m 2,480 ft / 756 m 77.00° 65.11° Asphalt 0 ft / 0 m 0 ft / 0 m
11 98 ft / 30 m 5,005 ft / 1,525 m 128.49° 116.60° Asphalt 0 ft / 0 m 0 ft / 0 m
24 75 ft / 23 m 2,480 ft / 756 m 257.00° 245.11° Asphalt 0 ft / 0 m 0 ft / 0 m
29 98 ft / 30 m 5,005 ft / 1,525 m 308.51° 296.62° Asphalt 0 ft / 0 m 0 ft / 0 m

Map

Weather


0- 5 10 15 20 25 30 35+ Temperature / ° C

Clouds and Precipitation
Forecast for 2017-12-18 00:00 UTC. Updated an hour ago

Ground ~20,000 ft ~40,000 ft Winds

METAR

CYVT 172000Z 27011G21KT 15SM SCT045 BKN080 BKN100 02/M02 A2918 RMK SC3AC3AC1 SLP907

TAF

TAF CYVT 171841Z 1719/1804 20010G20KT P6SM BKN080 TEMPO 1719/1722 6SM -SHRASN BKN020 OVC040 BECMG 1720/1722 28014G24KT FM172200 28015KT P6SM BKN030 TEMPO 1722/1804 BKN020 RMK NXT FCST BY 180100Z

Frequencies

Tower 122.30 MHz MF REGINA RDO
Warning: Do not use this data for real-world aviation or navigation. No guarantee of current accuracy is given.